createdAt,value
2019-05-20T00:02:28.376Z,9.95
2019-05-20T00:04:58.542Z,11.48
2019-05-20T00:07:29.616Z,13.93
2019-05-20T00:10:00.634Z,11.48
2019-05-20T00:12:31.650Z,8.70
2019-05-20T00:15:03.856Z,13.90
2019-05-20T00:17:35.217Z,8.53
2019-05-20T00:20:07.673Z,10.55
2019-05-20T00:22:39.087Z,8.43
2019-05-20T00:25:10.093Z,8.58
2019-05-20T00:27:41.115Z,11.12
2019-05-20T00:30:12.451Z,11.48
2019-05-20T00:32:43.463Z,10.70
2019-05-20T00:35:14.645Z,11.35
2019-05-20T00:37:45.781Z,12.37
2019-05-20T00:40:17.095Z,9.90
2019-05-20T00:42:48.118Z,11.65
2019-05-20T00:45:19.142Z,10.88
2019-05-20T00:47:50.231Z,10.32
2019-05-20T00:50:21.242Z,10.58
2019-05-20T00:52:52.257Z,10.48
2019-05-20T00:55:28.332Z,11.60
2019-05-20T00:57:59.331Z,10.30
2019-05-20T01:00:30.823Z,10.43
2019-05-20T01:03:01.845Z,14.73
2019-05-20T01:05:32.928Z,12.40
2019-05-20T01:08:03.937Z,10.53
2019-05-20T01:10:34.950Z,9.88
2019-05-20T01:13:05.987Z,11.05
2019-05-20T01:15:36.999Z,10.20
2019-05-20T01:18:09.428Z,10.15
2019-05-20T01:20:40.455Z,11.03
2019-05-20T01:23:11.463Z,17.30
2019-05-20T01:25:43.811Z,11.93
2019-05-20T01:28:14.889Z,12.37
2019-05-20T01:30:45.903Z,11.22
2019-05-20T01:33:16.942Z,11.00
2019-05-20T01:35:47.945Z,17.25
2019-05-20T01:38:18.955Z,12.80
2019-05-20T01:40:49.959Z,13.55
2019-05-20T01:43:20.982Z,12.50
2019-05-20T01:45:51.912Z,15.00
2019-05-20T01:48:22.939Z,13.65
2019-05-20T01:50:53.940Z,16.93
2019-05-20T01:53:25.205Z,12.25
2019-05-20T01:55:56.223Z,13.28
2019-05-20T01:58:27.245Z,13.48
2019-05-20T02:00:58.350Z,14.58
2019-05-20T02:03:32.125Z,15.55
2019-05-20T02:06:02.264Z,12.50
2019-05-20T02:08:33.286Z,12.68
2019-05-20T02:11:04.515Z,12.85
2019-05-20T02:13:55.311Z,14.35
2019-05-20T02:16:28.044Z,16.35
2019-05-20T02:18:59.064Z,13.38
2019-05-20T02:21:29.997Z,16.17
2019-05-20T02:24:01.006Z,14.38
2019-05-20T02:26:32.014Z,16.15
2019-05-20T02:29:03.032Z,17.05
2019-05-20T02:31:34.112Z,16.23
2019-05-20T02:34:05.045Z,14.68
2019-05-20T02:36:36.131Z,14.68
2019-05-20T02:39:07.559Z,16.48
2019-05-20T02:41:38.578Z,15.72
2019-05-20T02:44:09.590Z,18.73
2019-05-20T02:46:40.541Z,18.60
2019-05-20T02:49:11.491Z,16.85
2019-05-20T02:51:42.545Z,20.17
2019-05-20T02:54:13.567Z,16.93
2019-05-20T02:56:44.579Z,17.60
2019-05-20T02:59:15.587Z,17.02
2019-05-20T03:01:46.603Z,18.37
2019-05-20T03:04:17.616Z,18.70
2019-05-20T03:06:48.635Z,19.27
2019-05-20T03:09:19.717Z,15.93
2019-05-20T03:11:50.745Z,18.90
2019-05-20T03:14:21.744Z,17.05
2019-05-20T03:16:52.690Z,20.77
2019-05-20T03:19:23.718Z,19.57
2019-05-20T03:21:54.818Z,20.17
2019-05-20T03:24:25.937Z,21.55
2019-05-20T03:26:57.032Z,19.57
2019-05-20T03:29:28.062Z,22.05
2019-05-20T03:31:59.090Z,19.45
2019-05-20T03:34:45.560Z,20.45
2019-05-20T03:37:02.978Z,22.10
2019-05-20T03:39:34.012Z,23.02
2019-05-20T03:42:05.032Z,18.20
2019-05-20T03:44:36.060Z,19.73
2019-05-20T03:47:06.976Z,18.85
2019-05-20T03:49:37.987Z,19.27
2019-05-20T03:52:09.080Z,20.65
2019-05-20T03:54:40.224Z,18.75
2019-05-20T03:57:11.382Z,18.98
2019-05-20T03:59:42.601Z,19.65
2019-05-20T04:02:14.794Z,22.05
2019-05-20T04:05:00.637Z,19.70
2019-05-20T04:07:18.822Z,18.55
2019-05-20T04:09:50.325Z,19.10
2019-05-20T04:12:21.504Z,16.25
2019-05-20T04:14:52.663Z,17.67
2019-05-20T04:17:23.823Z,19.17
2019-05-20T04:19:55.002Z,18.75
2019-05-20T04:22:26.198Z,18.70
2019-05-20T04:24:57.326Z,19.35
2019-05-20T04:27:28.924Z,22.58
2019-05-20T04:30:00.256Z,18.20
2019-05-20T04:32:32.248Z,20.88
2019-05-20T04:35:20.537Z,17.12
2019-05-20T04:37:37.290Z,18.10
2019-05-20T04:40:09.180Z,19.67
2019-05-20T04:42:43.213Z,19.60
2019-05-20T04:45:16.567Z,18.62
2019-05-20T04:47:47.736Z,17.52
2019-05-20T04:50:21.378Z,16.42
2019-05-20T04:52:55.323Z,16.00
2019-05-20T04:55:26.877Z,15.85
2019-05-20T04:58:00.471Z,17.60
2019-05-20T05:00:53.204Z,18.60
2019-05-20T05:03:24.552Z,15.13
2019-05-20T05:05:56.183Z,16.35
2019-05-20T05:08:27.328Z,16.45
2019-05-20T05:10:58.480Z,22.55
2019-05-20T05:13:31.404Z,16.62
2019-05-20T05:16:02.742Z,18.05
2019-05-20T05:18:33.837Z,15.48
2019-05-20T05:21:05.086Z,18.48
2019-05-20T05:23:36.203Z,27.35
2019-05-20T05:26:07.348Z,19.42
2019-05-20T05:28:38.542Z,29.55
2019-05-20T05:31:09.696Z,86.02
2019-05-20T05:33:40.853Z,66.80
2019-05-20T05:36:12.054Z,178.60
2019-05-20T05:38:43.701Z,51.45
2019-05-20T05:41:15.329Z,176.87
2019-05-20T05:43:46.477Z,304.48
2019-05-20T05:46:17.670Z,65.47
2019-05-20T05:48:49.967Z,108.55
2019-05-20T05:51:21.137Z,88.12
2019-05-20T05:53:52.605Z,19.73
2019-05-20T05:56:23.713Z,38.55
2019-05-20T05:58:54.879Z,26.77
2019-05-20T06:01:26.093Z,364.57
2019-05-20T06:03:57.256Z,273.85
2019-05-20T06:06:28.517Z,136.10
2019-05-20T06:08:59.665Z,33.18
2019-05-20T06:11:30.996Z,151.78
2019-05-20T06:14:02.095Z,190.22
2019-05-20T06:16:36.827Z,137.37
2019-05-20T06:19:07.129Z,59.53
2019-05-20T06:21:38.214Z,263.95
2019-05-20T06:24:09.497Z,39.92
2019-05-20T06:26:40.710Z,20.62
2019-05-20T06:29:11.881Z,21.40
2019-05-20T06:31:43.173Z,21.37
2019-05-20T06:34:14.665Z,18.65
2019-05-20T06:36:47.657Z,18.57
2019-05-20T06:39:19.046Z,16.73
2019-05-20T06:41:50.241Z,18.95
2019-05-20T06:44:21.370Z,20.25
2019-05-20T06:46:52.480Z,16.80
2019-05-20T06:49:23.574Z,19.45
2019-05-20T06:51:54.671Z,18.05
2019-05-20T06:54:25.795Z,33.73
2019-05-20T06:56:56.979Z,68.33
2019-05-20T06:59:28.118Z,51.37
2019-05-20T07:01:59.299Z,32.38
2019-05-20T07:04:30.655Z,18.90
2019-05-20T07:07:01.806Z,16.52
2019-05-20T07:09:34.317Z,20.82
2019-05-20T07:12:05.700Z,19.75
2019-05-20T07:14:36.926Z,18.92
2019-05-20T07:17:08.054Z,18.40
2019-05-20T07:19:39.199Z,22.27
2019-05-20T07:22:10.303Z,15.70
2019-05-20T07:24:41.625Z,21.60
2019-05-20T07:27:12.817Z,18.77
2019-05-20T07:29:43.940Z,19.32
2019-05-20T07:32:15.057Z,22.45
2019-05-20T07:34:46.171Z,21.62
2019-05-20T07:37:17.377Z,19.10
2019-05-20T07:39:48.490Z,21.87
2019-05-20T07:42:19.628Z,23.05
2019-05-20T07:44:50.753Z,20.40
2019-05-20T07:47:21.920Z,28.80
2019-05-20T07:49:53.561Z,25.45
2019-05-20T07:52:26.594Z,24.90
2019-05-20T07:54:58.618Z,23.27
2019-05-20T07:57:30.172Z,23.92
2019-05-20T08:00:01.689Z,21.85
2019-05-20T08:02:33.809Z,22.45
2019-05-20T08:05:10.101Z,22.70
2019-05-20T08:07:52.066Z,21.65
2019-05-20T08:10:14.911Z,22.35
2019-05-20T08:12:46.249Z,21.52
2019-05-20T08:15:17.484Z,20.35
2019-05-20T08:17:50.036Z,20.55
2019-05-20T08:20:21.220Z,22.13
2019-05-20T08:22:52.990Z,24.75
2019-05-20T08:25:24.213Z,16.95
2019-05-20T08:27:55.348Z,20.20
2019-05-20T08:30:35.481Z,20.10
2019-05-20T08:33:07.016Z,17.52
2019-05-20T08:35:38.407Z,20.17
2019-05-20T08:38:10.950Z,21.17
2019-05-20T08:40:42.781Z,22.67
2019-05-20T08:43:13.939Z,21.40
2019-05-20T08:45:46.115Z,22.50
2019-05-20T08:48:17.256Z,21.45
2019-05-20T08:50:48.414Z,24.57
2019-05-20T08:53:20.854Z,22.00
2019-05-20T08:55:51.978Z,22.87
2019-05-20T08:58:23.049Z,24.00
2019-05-20T09:00:54.179Z,19.95
2019-05-20T09:03:30.335Z,21.20
2019-05-20T09:05:59.731Z,20.43
2019-05-20T09:08:30.939Z,23.10
2019-05-20T09:11:02.134Z,20.57
2019-05-20T09:13:33.296Z,26.77
2019-05-20T09:16:05.833Z,19.90
2019-05-20T09:18:36.951Z,25.32
2019-05-20T09:21:08.230Z,24.63
2019-05-20T09:23:39.616Z,20.45
2019-05-20T09:26:11.032Z,25.27
2019-05-20T09:28:42.519Z,22.10
2019-05-20T09:31:13.846Z,24.45
2019-05-20T09:33:45.041Z,22.98
2019-05-20T09:36:16.183Z,22.67
2019-05-20T09:38:48.247Z,20.92
2019-05-20T09:41:20.738Z,25.57
2019-05-20T09:43:53.966Z,26.42
2019-05-20T09:46:26.503Z,25.02
2019-05-20T09:48:57.847Z,23.45
2019-05-20T09:51:29.163Z,27.55
2019-05-20T09:54:00.807Z,24.35
2019-05-20T09:56:32.368Z,23.73
2019-05-20T09:59:03.891Z,26.50
2019-05-20T10:01:39.577Z,24.80
2019-05-20T10:04:09.579Z,28.27
2019-05-20T10:06:41.190Z,41.68
2019-05-20T10:09:14.314Z,55.80
2019-05-20T10:11:46.426Z,44.90
2019-05-20T10:14:17.781Z,59.77
2019-05-20T10:16:50.771Z,31.35
2019-05-20T10:19:22.726Z,26.23
2019-05-20T10:21:54.120Z,27.10
2019-05-20T10:24:25.954Z,23.98
2019-05-20T10:26:57.664Z,24.57
2019-05-20T10:29:29.472Z,28.05
2019-05-20T10:32:00.872Z,29.72
2019-05-20T10:34:32.171Z,22.67
2019-05-20T10:37:03.401Z,25.95
2019-05-20T10:39:34.522Z,26.35
2019-05-20T10:42:05.760Z,30.02
2019-05-20T10:44:41.772Z,26.50
2019-05-20T10:47:10.645Z,26.12
2019-05-20T10:49:41.763Z,27.42
2019-05-20T10:52:12.905Z,23.98
2019-05-20T10:54:44.220Z,27.50
2019-05-20T10:57:15.301Z,22.15
2019-05-20T10:59:46.693Z,31.97
2019-05-20T11:02:19.516Z,23.67
2019-05-20T11:04:51.119Z,22.15
2019-05-20T11:07:22.446Z,26.65
2019-05-20T11:09:54.445Z,25.15
2019-05-20T11:12:26.190Z,22.65
2019-05-20T11:14:57.587Z,23.92
2019-05-20T11:17:28.842Z,22.20
2019-05-20T11:20:00.040Z,22.30
2019-05-20T11:22:31.240Z,22.73
2019-05-20T11:25:02.581Z,23.27
2019-05-20T11:27:34.842Z,23.42
2019-05-20T11:30:12.413Z,19.45
2019-05-20T11:32:43.719Z,20.82
2019-05-20T11:35:15.607Z,20.45
2019-05-20T11:37:47.888Z,21.82
2019-05-20T11:40:19.198Z,19.02
2019-05-20T11:42:50.359Z,24.70
2019-05-20T11:45:21.576Z,20.08
2019-05-20T11:47:52.814Z,22.58
2019-05-20T11:50:24.114Z,18.57
2019-05-20T11:52:55.252Z,18.70
2019-05-20T11:55:26.406Z,23.67
2019-05-20T11:58:12.810Z,18.87
2019-05-20T12:00:30.664Z,22.05
2019-05-20T12:03:01.803Z,18.48
2019-05-20T12:05:32.954Z,18.77
2019-05-20T12:08:04.075Z,22.10
2019-05-20T12:10:35.185Z,17.42
2019-05-20T12:13:06.269Z,18.90
2019-05-20T12:15:37.416Z,19.23
2019-05-20T12:18:08.513Z,20.37
2019-05-20T12:20:39.904Z,19.25
2019-05-20T12:23:11.016Z,19.15
2019-05-20T12:25:42.174Z,18.50
2019-05-20T12:28:13.309Z,19.82
2019-05-20T12:30:44.577Z,20.48
2019-05-20T12:33:19.007Z,19.00
2019-05-20T12:35:48.647Z,23.73
2019-05-20T12:38:20.177Z,18.42
2019-05-20T12:40:51.321Z,17.65
2019-05-20T12:43:22.484Z,17.07
2019-05-20T12:45:53.626Z,18.17
2019-05-20T12:48:24.741Z,18.70
2019-05-20T12:50:55.876Z,17.75
2019-05-20T12:53:27.055Z,23.02
2019-05-20T12:55:58.190Z,21.68
2019-05-20T12:58:29.358Z,20.35
2019-05-20T13:01:00.426Z,18.15
2019-05-20T13:03:31.638Z,18.60
2019-05-20T13:06:02.707Z,23.20
2019-05-20T13:08:33.869Z,18.57
2019-05-20T13:11:04.982Z,19.15
2019-05-20T13:13:36.167Z,18.07
2019-05-20T13:16:07.318Z,16.45
2019-05-20T13:18:54.685Z,15.88
2019-05-20T13:21:11.450Z,15.15
2019-05-20T13:23:42.654Z,15.75
2019-05-20T13:26:13.778Z,21.02
2019-05-20T13:28:45.774Z,18.40
2019-05-20T13:31:16.911Z,15.83
2019-05-20T13:33:47.999Z,19.62
2019-05-20T13:36:19.121Z,18.70
2019-05-20T13:38:50.351Z,17.85
2019-05-20T13:41:21.531Z,17.75
2019-05-20T13:43:52.713Z,14.33
2019-05-20T13:46:23.828Z,17.45
2019-05-20T13:48:54.992Z,18.80
2019-05-20T13:51:26.124Z,18.98
2019-05-20T13:53:57.244Z,16.97
2019-05-20T13:56:28.685Z,16.17
2019-05-20T13:58:59.810Z,19.52
2019-05-20T14:01:31.070Z,15.90
2019-05-20T14:04:02.179Z,17.80
2019-05-20T14:06:33.332Z,20.55
2019-05-20T14:09:07.645Z,16.32
2019-05-20T14:11:38.760Z,14.95
2019-05-20T14:14:13.829Z,13.93
2019-05-20T14:16:42.732Z,13.03
2019-05-20T14:19:13.848Z,13.35
2019-05-20T14:21:44.961Z,14.30
2019-05-20T14:24:16.102Z,14.00
2019-05-20T14:26:48.246Z,11.97
2019-05-20T14:29:19.350Z,14.80
2019-05-20T14:31:50.565Z,13.70
2019-05-20T14:34:21.765Z,11.18
2019-05-20T14:36:53.194Z,13.58
2019-05-20T14:39:25.437Z,13.15
2019-05-20T14:41:56.622Z,15.30
2019-05-20T14:44:27.746Z,12.30
2019-05-20T14:46:58.915Z,11.73
2019-05-20T14:49:30.119Z,12.85
2019-05-20T14:52:01.250Z,11.83
2019-05-20T14:54:32.400Z,9.60
2019-05-20T14:57:03.595Z,10.72
2019-05-20T14:59:34.759Z,8.65
2019-05-20T15:02:05.966Z,8.20
2019-05-20T15:04:37.225Z,7.42
2019-05-20T15:07:08.533Z,7.85
2019-05-20T15:09:39.728Z,9.48
2019-05-20T15:12:10.840Z,11.90
2019-05-20T15:14:42.621Z,6.67
2019-05-20T15:17:14.053Z,7.33
2019-05-20T15:19:45.319Z,6.28
2019-05-20T15:22:16.468Z,6.70
2019-05-20T15:24:47.582Z,7.33
2019-05-20T15:27:18.706Z,8.03
2019-05-20T15:29:49.833Z,6.70
2019-05-20T15:32:21.025Z,6.83
2019-05-20T15:34:52.127Z,6.95
2019-05-20T15:37:23.245Z,5.20
2019-05-20T15:39:56.112Z,5.45
2019-05-20T15:42:28.326Z,6.45
2019-05-20T15:44:59.626Z,5.03
2019-05-20T15:47:30.920Z,4.65
2019-05-20T15:50:05.268Z,7.80
2019-05-20T15:52:36.033Z,5.50
2019-05-20T15:55:08.516Z,5.45
2019-05-20T15:57:40.545Z,5.85
2019-05-20T16:00:12.409Z,4.78
2019-05-20T16:02:43.945Z,6.78
2019-05-20T16:05:15.084Z,3.45
2019-05-20T16:07:46.266Z,5.00
2019-05-20T16:10:19.256Z,4.47
2019-05-20T16:12:51.155Z,2.52
2019-05-20T16:15:23.382Z,4.03
2019-05-20T16:17:55.105Z,4.20
2019-05-20T16:20:27.589Z,5.05
2019-05-20T16:22:58.965Z,5.58
2019-05-20T16:25:30.550Z,3.10
2019-05-20T16:28:01.970Z,2.60
2019-05-20T16:30:34.967Z,4.50
2019-05-20T16:33:08.027Z,2.90
2019-05-20T16:35:40.502Z,3.17
2019-05-20T16:38:11.901Z,2.77
2019-05-20T16:40:43.068Z,3.40
2019-05-20T16:43:16.315Z,2.87
2019-05-20T16:45:49.093Z,3.77
2019-05-20T16:48:20.668Z,3.58
2019-05-20T16:50:53.928Z,3.83
2019-05-20T16:53:27.709Z,5.10
2019-05-20T16:56:01.461Z,3.42
2019-05-20T16:58:32.677Z,3.10
2019-05-20T17:01:04.018Z,2.50
2019-05-20T17:03:35.502Z,5.95
2019-05-20T17:06:06.998Z,4.22
2019-05-20T17:08:38.251Z,2.77
2019-05-20T17:11:09.494Z,4.65
2019-05-20T17:13:40.589Z,6.47
2019-05-20T17:16:11.702Z,3.08
2019-05-20T17:18:42.854Z,4.53
2019-05-20T17:21:13.984Z,2.12
2019-05-20T17:23:45.280Z,2.37
2019-05-20T17:26:16.389Z,1.30
2019-05-20T17:28:47.540Z,2.25
2019-05-20T17:31:19.033Z,3.00
2019-05-20T17:33:50.396Z,1.67
2019-05-20T17:36:21.600Z,3.45
2019-05-20T17:38:52.904Z,3.90
2019-05-20T17:41:24.718Z,3.67
2019-05-20T17:43:56.286Z,1.65
2019-05-20T17:46:30.040Z,2.72
2019-05-20T17:49:01.904Z,2.15
2019-05-20T17:51:34.888Z,4.62
2019-05-20T17:54:09.075Z,4.70
2019-05-20T17:56:42.704Z,7.37
2019-05-20T17:59:17.283Z,5.45
2019-05-20T18:01:49.417Z,4.35
2019-05-20T18:04:20.739Z,3.12
2019-05-20T18:06:52.072Z,3.42
2019-05-20T18:09:24.818Z,4.50
2019-05-20T18:11:55.901Z,4.40
2019-05-20T18:14:27.047Z,5.03
2019-05-20T18:16:58.271Z,2.55
2019-05-20T18:19:33.419Z,2.15
2019-05-20T18:22:04.684Z,6.47
2019-05-20T18:24:35.878Z,4.15
2019-05-20T18:27:07.256Z,2.42
2019-05-20T18:29:38.396Z,2.58
2019-05-20T18:32:10.066Z,1.92
2019-05-20T18:34:41.264Z,5.25
2019-05-20T18:37:12.418Z,3.00
2019-05-20T18:39:43.681Z,4.67
2019-05-20T18:42:14.830Z,7.35
2019-05-20T18:44:46.060Z,6.95
2019-05-20T18:47:17.307Z,6.85
2019-05-20T18:49:48.477Z,3.95
2019-05-20T18:52:19.636Z,6.50
2019-05-20T18:54:50.817Z,8.38
2019-05-20T18:57:21.985Z,8.35
2019-05-20T18:59:54.175Z,8.60
2019-05-20T19:02:25.295Z,5.92
2019-05-20T19:04:56.454Z,5.60
2019-05-20T19:07:27.560Z,5.67
2019-05-20T19:09:58.637Z,5.00
2019-05-20T19:12:29.749Z,5.30
2019-05-20T19:15:00.871Z,4.08
